sensor_id;sensor_type;location;lat;lon;timestamp;pressure;altitude;pressure_sealevel;temperature;humidity
84758;BME280;74981;52.476;16.656;2023-12-22T00:01:49;96961.55;;;4.77;70.38
84758;BME280;74981;52.476;16.656;2023-12-22T00:04:15;96958.60;;;4.75;70.70
84758;BME280;74981;52.476;16.656;2023-12-22T00:06:42;96952.84;;;4.67;71.22
84758;BME280;74981;52.476;16.656;2023-12-22T00:09:09;96965.21;;;4.66;71.26
84758;BME280;74981;52.476;16.656;2023-12-22T00:11:36;96977.27;;;4.61;71.91
84758;BME280;74981;52.476;16.656;2023-12-22T00:14:02;96982.36;;;4.60;71.63
84758;BME280;74981;52.476;16.656;2023-12-22T00:16:29;96974.03;;;4.59;71.73
84758;BME280;74981;52.476;16.656;2023-12-22T00:18:56;96981.29;;;4.56;71.98
84758;BME280;74981;52.476;16.656;2023-12-22T00:21:22;96987.69;;;4.51;72.11
84758;BME280;74981;52.476;16.656;2023-12-22T00:23:49;96992.30;;;4.48;72.07
84758;BME280;74981;52.476;16.656;2023-12-22T00:26:16;96983.70;;;4.45;71.79
84758;BME280;74981;52.476;16.656;2023-12-22T00:28:43;96994.80;;;4.42;71.85
84758;BME280;74981;52.476;16.656;2023-12-22T00:31:10;96990.91;;;4.39;71.23
84758;BME280;74981;52.476;16.656;2023-12-22T00:33:36;96995.02;;;4.40;70.99
84758;BME280;74981;52.476;16.656;2023-12-22T00:36:04;97000.75;;;4.44;70.47
84758;BME280;74981;52.476;16.656;2023-12-22T00:38:31;97005.88;;;4.47;70.45
84758;BME280;74981;52.476;16.656;2023-12-22T00:40:58;97004.73;;;4.48;70.38
84758;BME280;74981;52.476;16.656;2023-12-22T00:43:24;96991.30;;;4.49;69.90
84758;BME280;74981;52.476;16.656;2023-12-22T00:45:51;96995.39;;;4.49;69.64
84758;BME280;74981;52.476;16.656;2023-12-22T00:48:18;97008.27;;;4.49;69.40
84758;BME280;74981;52.476;16.656;2023-12-22T00:50:45;97004.34;;;4.50;69.32
84758;BME280;74981;52.476;16.656;2023-12-22T00:53:12;97009.26;;;4.50;69.20
84758;BME280;74981;52.476;16.656;2023-12-22T00:55:39;97020.30;;;4.50;69.26
84758;BME280;74981;52.476;16.656;2023-12-22T00:58:05;97015.50;;;4.50;69.16
84758;BME280;74981;52.476;16.656;2023-12-22T01:00:32;97023.65;;;4.50;69.47
84758;BME280;74981;52.476;16.656;2023-12-22T01:02:59;97027.06;;;4.51;69.24
84758;BME280;74981;52.476;16.656;2023-12-22T01:05:25;97027.66;;;4.55;69.17
84758;BME280;74981;52.476;16.656;2023-12-22T01:07:52;97020.20;;;4.58;68.78
84758;BME280;74981;52.476;16.656;2023-12-22T01:10:19;97016.74;;;4.59;68.68
84758;BME280;74981;52.476;16.656;2023-12-22T01:12:46;97025.95;;;4.59;69.18
84758;BME280;74981;52.476;16.656;2023-12-22T01:15:13;97018.59;;;4.56;69.18
84758;BME280;74981;52.476;16.656;2023-12-22T01:17:39;97007.41;;;4.55;68.82
84758;BME280;74981;52.476;16.656;2023-12-22T01:20:07;97024.64;;;4.53;68.76
84758;BME280;74981;52.476;16.656;2023-12-22T01:22:34;97026.83;;;4.51;69.28
84758;BME280;74981;52.476;16.656;2023-12-22T01:25:00;97025.96;;;4.48;69.61
84758;BME280;74981;52.476;16.656;2023-12-22T01:27:27;97028.66;;;4.45;69.64
84758;BME280;74981;52.476;16.656;2023-12-22T01:29:54;97028.79;;;4.42;69.55
84758;BME280;74981;52.476;16.656;2023-12-22T01:32:21;97027.05;;;4.42;69.66
84758;BME280;74981;52.476;16.656;2023-12-22T01:34:47;97025.69;;;4.43;69.80
84758;BME280;74981;52.476;16.656;2023-12-22T01:37:14;97026.77;;;4.43;69.95
84758;BME280;74981;52.476;16.656;2023-12-22T01:39:41;97020.42;;;4.41;69.75
84758;BME280;74981;52.476;16.656;2023-12-22T01:42:09;97031.54;;;4.38;69.95
84758;BME280;74981;52.476;16.656;2023-12-22T01:44:35;97025.80;;;4.34;69.98
84758;BME280;74981;52.476;16.656;2023-12-22T01:47:03;97031.98;;;4.33;69.96
84758;BME280;74981;52.476;16.656;2023-12-22T01:49:30;97044.23;;;4.30;70.21
84758;BME280;74981;52.476;16.656;2023-12-22T01:51:57;97038.86;;;4.27;70.46
84758;BME280;74981;52.476;16.656;2023-12-22T01:54:24;97039.85;;;4.25;70.41
84758;BME280;74981;52.476;16.656;2023-12-22T01:56:51;97038.28;;;4.23;70.24
84758;BME280;74981;52.476;16.656;2023-12-22T01:59:18;97048.52;;;4.25;70.07
84758;BME280;74981;52.476;16.656;2023-12-22T02:01:45;97046.55;;;4.30;69.45
84758;BME280;74981;52.476;16.656;2023-12-22T02:04:12;97053.61;;;4.35;69.16
84758;BME280;74981;52.476;16.656;2023-12-22T02:06:41;97054.54;;;4.39;69.12
84758;BME280;74981;52.476;16.656;2023-12-22T02:09:08;97060.54;;;4.41;69.17
84758;BME280;74981;52.476;16.656;2023-12-22T02:11:36;97059.55;;;4.41;68.88
84758;BME280;74981;52.476;16.656;2023-12-22T02:14:03;97056.86;;;4.41;68.20
84758;BME280;74981;52.476;16.656;2023-12-22T02:16:35;97065.40;;;4.41;68.16
84758;BME280;74981;52.476;16.656;2023-12-22T02:19:14;97072.72;;;4.41;68.45
84758;BME280;74981;52.476;16.656;2023-12-22T02:22:05;97075.77;;;4.39;68.52
84758;BME280;74981;52.476;16.656;2023-12-22T02:24:33;97073.55;;;4.37;68.50
84758;BME280;74981;52.476;16.656;2023-12-22T02:27:04;97079.25;;;4.35;68.34
84758;BME280;74981;52.476;16.656;2023-12-22T02:29:34;97071.00;;;4.33;67.90
84758;BME280;74981;52.476;16.656;2023-12-22T02:32:07;97079.15;;;4.31;68.28
84758;BME280;74981;52.476;16.656;2023-12-22T02:34:37;97076.83;;;4.33;66.57
84758;BME280;74981;52.476;16.656;2023-12-22T02:37:06;97081.13;;;4.37;66.11
84758;BME280;74981;52.476;16.656;2023-12-22T02:39:34;97079.31;;;4.39;66.13
84758;BME280;74981;52.476;16.656;2023-12-22T02:42:02;97081.78;;;4.39;65.99
84758;BME280;74981;52.476;16.656;2023-12-22T02:44:29;97083.70;;;4.39;64.60
84758;BME280;74981;52.476;16.656;2023-12-22T02:46:56;97086.99;;;4.38;64.79
84758;BME280;74981;52.476;16.656;2023-12-22T02:49:22;97094.52;;;4.36;64.34
84758;BME280;74981;52.476;16.656;2023-12-22T02:51:49;97091.82;;;4.33;64.60
84758;BME280;74981;52.476;16.656;2023-12-22T02:54:16;97087.39;;;4.32;64.19
84758;BME280;74981;52.476;16.656;2023-12-22T02:56:45;97086.61;;;4.30;64.17
84758;BME280;74981;52.476;16.656;2023-12-22T02:59:11;97088.16;;;4.27;63.88
84758;BME280;74981;52.476;16.656;2023-12-22T03:01:38;97093.16;;;4.25;64.47
84758;BME280;74981;52.476;16.656;2023-12-22T03:04:05;97094.02;;;4.22;63.64
84758;BME280;74981;52.476;16.656;2023-12-22T03:06:32;97094.80;;;4.20;63.57
84758;BME280;74981;52.476;16.656;2023-12-22T03:08:59;97097.55;;;4.18;62.85
84758;BME280;74981;52.476;16.656;2023-12-22T03:11:26;97094.24;;;4.16;62.72
84758;BME280;74981;52.476;16.656;2023-12-22T03:13:53;97102.90;;;4.13;62.15
84758;BME280;74981;52.476;16.656;2023-12-22T03:16:19;97102.23;;;4.10;61.99
84758;BME280;74981;52.476;16.656;2023-12-22T03:18:46;97105.48;;;4.06;61.46
84758;BME280;74981;52.476;16.656;2023-12-22T03:21:17;97115.27;;;4.03;60.33
84758;BME280;74981;52.476;16.656;2023-12-22T03:23:44;97120.45;;;3.99;61.10
84758;BME280;74981;52.476;16.656;2023-12-22T03:26:11;97117.65;;;3.92;61.97
84758;BME280;74981;52.476;16.656;2023-12-22T03:28:38;97129.55;;;3.91;62.48
84758;BME280;74981;52.476;16.656;2023-12-22T03:31:06;97123.74;;;3.86;61.74
84758;BME280;74981;52.476;16.656;2023-12-22T03:33:33;97131.04;;;3.82;61.86
84758;BME280;74981;52.476;16.656;2023-12-22T03:36:00;97129.77;;;3.80;61.52
84758;BME280;74981;52.476;16.656;2023-12-22T03:38:27;97125.63;;;3.77;59.95
84758;BME280;74981;52.476;16.656;2023-12-22T03:40:53;97135.59;;;3.77;60.13
84758;BME280;74981;52.476;16.656;2023-12-22T03:43:20;97134.98;;;3.73;60.39
84758;BME280;74981;52.476;16.656;2023-12-22T03:45:47;97136.20;;;3.70;60.62
84758;BME280;74981;52.476;16.656;2023-12-22T03:48:14;97133.80;;;3.68;60.86
84758;BME280;74981;52.476;16.656;2023-12-22T03:50:41;97136.22;;;3.67;61.18
84758;BME280;74981;52.476;16.656;2023-12-22T03:53:07;97129.02;;;3.66;60.83
84758;BME280;74981;52.476;16.656;2023-12-22T03:55:34;97132.23;;;3.64;61.03
84758;BME280;74981;52.476;16.656;2023-12-22T03:58:01;97136.41;;;3.62;61.32
84758;BME280;74981;52.476;16.656;2023-12-22T04:00:28;97137.58;;;3.60;61.53
84758;BME280;74981;52.476;16.656;2023-12-22T04:02:55;97150.39;;;3.60;61.42
84758;BME280;74981;52.476;16.656;2023-12-22T04:05:22;97152.88;;;3.62;61.37
84758;BME280;74981;52.476;16.656;2023-12-22T04:07:48;97168.23;;;3.62;61.54
84758;BME280;74981;52.476;16.656;2023-12-22T04:10:17;97159.17;;;3.60;61.54
84758;BME280;74981;52.476;16.656;2023-12-22T04:12:44;97171.41;;;3.59;61.68
84758;BME280;74981;52.476;16.656;2023-12-22T04:15:11;97170.13;;;3.55;61.69
84758;BME280;74981;52.476;16.656;2023-12-22T04:17:37;97172.27;;;3.48;62.05
84758;BME280;74981;52.476;16.656;2023-12-22T04:20:06;97167.63;;;3.41;61.36
84758;BME280;74981;52.476;16.656;2023-12-22T04:22:33;97170.88;;;3.35;60.66
84758;BME280;74981;52.476;16.656;2023-12-22T04:25:00;97170.73;;;3.30;60.15
84758;BME280;74981;52.476;16.656;2023-12-22T04:27:27;97168.09;;;3.29;59.19
84758;BME280;74981;52.476;16.656;2023-12-22T04:29:54;97166.00;;;3.27;59.57
84758;BME280;74981;52.476;16.656;2023-12-22T04:32:20;97153.27;;;3.25;58.04
84758;BME280;74981;52.476;16.656;2023-12-22T04:34:47;97162.93;;;3.23;59.09
84758;BME280;74981;52.476;16.656;2023-12-22T04:37:14;97172.54;;;3.17;59.41
84758;BME280;74981;52.476;16.656;2023-12-22T04:39:41;97172.71;;;3.13;60.10
84758;BME280;74981;52.476;16.656;2023-12-22T04:42:08;97172.41;;;3.07;60.20
84758;BME280;74981;52.476;16.656;2023-12-22T04:44:35;97161.90;;;3.02;60.23
84758;BME280;74981;52.476;16.656;2023-12-22T04:47:02;97173.12;;;2.96;60.19
84758;BME280;74981;52.476;16.656;2023-12-22T04:49:29;97185.67;;;2.91;60.57
84758;BME280;74981;52.476;16.656;2023-12-22T04:51:55;97181.98;;;2.88;60.76
84758;BME280;74981;52.476;16.656;2023-12-22T04:54:22;97188.49;;;2.86;61.14
84758;BME280;74981;52.476;16.656;2023-12-22T04:56:49;97187.33;;;2.87;62.04
84758;BME280;74981;52.476;16.656;2023-12-22T04:59:15;97192.16;;;2.88;63.13
84758;BME280;74981;52.476;16.656;2023-12-22T05:01:42;97195.98;;;2.89;63.92
84758;BME280;74981;52.476;16.656;2023-12-22T05:04:09;97192.88;;;2.90;64.39
84758;BME280;74981;52.476;16.656;2023-12-22T05:06:36;97191.52;;;2.89;65.34
84758;BME280;74981;52.476;16.656;2023-12-22T05:09:02;97190.34;;;2.89;65.83
84758;BME280;74981;52.476;16.656;2023-12-22T05:11:29;97188.71;;;2.91;66.12
84758;BME280;74981;52.476;16.656;2023-12-22T05:13:56;97194.01;;;2.96;66.55
84758;BME280;74981;52.476;16.656;2023-12-22T05:16:23;97192.61;;;2.99;66.95
84758;BME280;74981;52.476;16.656;2023-12-22T05:18:49;97201.94;;;3.02;67.16
84758;BME280;74981;52.476;16.656;2023-12-22T05:21:16;97200.25;;;3.03;67.23
84758;BME280;74981;52.476;16.656;2023-12-22T05:23:43;97190.58;;;3.03;67.70
84758;BME280;74981;52.476;16.656;2023-12-22T05:26:10;97194.88;;;3.02;67.57
84758;BME280;74981;52.476;16.656;2023-12-22T05:28:42;97187.79;;;3.03;67.86
84758;BME280;74981;52.476;16.656;2023-12-22T05:31:09;97190.50;;;3.02;68.00
84758;BME280;74981;52.476;16.656;2023-12-22T05:33:36;97186.59;;;3.02;67.81
84758;BME280;74981;52.476;16.656;2023-12-22T05:36:03;97187.91;;;3.01;68.12
84758;BME280;74981;52.476;16.656;2023-12-22T05:38:30;97188.66;;;2.99;68.12
84758;BME280;74981;52.476;16.656;2023-12-22T05:40:57;97190.02;;;2.96;67.76
84758;BME280;74981;52.476;16.656;2023-12-22T05:43:24;97188.91;;;2.92;67.89
84758;BME280;74981;52.476;16.656;2023-12-22T05:45:50;97190.85;;;2.92;67.91
84758;BME280;74981;52.476;16.656;2023-12-22T05:48:17;97192.42;;;2.94;68.20
84758;BME280;74981;52.476;16.656;2023-12-22T05:50:44;97187.41;;;2.96;67.99
84758;BME280;74981;52.476;16.656;2023-12-22T05:53:11;97182.16;;;2.97;67.72
84758;BME280;74981;52.476;16.656;2023-12-22T05:55:38;97176.34;;;2.95;67.34
84758;BME280;74981;52.476;16.656;2023-12-22T05:58:04;97163.85;;;2.93;67.12
84758;BME280;74981;52.476;16.656;2023-12-22T06:00:31;97165.50;;;2.90;67.42
84758;BME280;74981;52.476;16.656;2023-12-22T06:02:58;97165.42;;;2.86;67.24
84758;BME280;74981;52.476;16.656;2023-12-22T06:05:25;97154.17;;;2.82;67.34
84758;BME280;74981;52.476;16.656;2023-12-22T06:07:51;97161.55;;;2.79;66.93
84758;BME280;74981;52.476;16.656;2023-12-22T06:10:18;97159.64;;;2.75;66.99
84758;BME280;74981;52.476;16.656;2023-12-22T06:12:45;97160.84;;;2.73;67.18
84758;BME280;74981;52.476;16.656;2023-12-22T06:15:12;97163.10;;;2.70;67.22
84758;BME280;74981;52.476;16.656;2023-12-22T06:17:39;97165.27;;;2.66;67.35
84758;BME280;74981;52.476;16.656;2023-12-22T06:20:08;97170.89;;;2.63;67.29
84758;BME280;74981;52.476;16.656;2023-12-22T06:22:35;97169.61;;;2.64;67.39
84758;BME280;74981;52.476;16.656;2023-12-22T06:25:02;97167.77;;;2.66;67.57
84758;BME280;74981;52.476;16.656;2023-12-22T06:27:28;97165.24;;;2.73;67.42
84758;BME280;74981;52.476;16.656;2023-12-22T06:29:55;97175.40;;;2.81;67.85
84758;BME280;74981;52.476;16.656;2023-12-22T06:32:22;97162.46;;;2.89;67.95
84758;BME280;74981;52.476;16.656;2023-12-22T06:34:49;97165.43;;;2.94;67.87
84758;BME280;74981;52.476;16.656;2023-12-22T06:37:15;97169.31;;;2.95;68.23
84758;BME280;74981;52.476;16.656;2023-12-22T06:39:42;97164.27;;;2.94;68.28
84758;BME280;74981;52.476;16.656;2023-12-22T06:42:09;97164.00;;;2.94;68.32
84758;BME280;74981;52.476;16.656;2023-12-22T06:44:36;97158.88;;;2.94;68.43
84758;BME280;74981;52.476;16.656;2023-12-22T06:47:03;97163.30;;;2.94;69.02
84758;BME280;74981;52.476;16.656;2023-12-22T06:49:30;97161.36;;;2.94;69.15
84758;BME280;74981;52.476;16.656;2023-12-22T06:51:56;97158.90;;;2.95;68.89
84758;BME280;74981;52.476;16.656;2023-12-22T06:54:23;97158.45;;;2.96;69.20
84758;BME280;74981;52.476;16.656;2023-12-22T06:56:50;97148.47;;;3.01;68.85
84758;BME280;74981;52.476;16.656;2023-12-22T06:59:17;97148.85;;;3.09;68.77
84758;BME280;74981;52.476;16.656;2023-12-22T07:01:43;97143.05;;;3.17;68.44
84758;BME280;74981;52.476;16.656;2023-12-22T07:04:10;97140.14;;;3.19;68.87
84758;BME280;74981;52.476;16.656;2023-12-22T07:06:37;97128.45;;;3.23;68.84
84758;BME280;74981;52.476;16.656;2023-12-22T07:09:30;97127.02;;;3.25;68.94
84758;BME280;74981;52.476;16.656;2023-12-22T07:11:56;97121.36;;;3.26;68.84
84758;BME280;74981;52.476;16.656;2023-12-22T07:14:23;97125.86;;;3.27;68.86
84758;BME280;74981;52.476;16.656;2023-12-22T07:16:50;97128.98;;;3.26;68.68
84758;BME280;74981;52.476;16.656;2023-12-22T07:19:16;97137.71;;;3.25;68.75
84758;BME280;74981;52.476;16.656;2023-12-22T07:21:43;97153.30;;;3.25;69.17
84758;BME280;74981;52.476;16.656;2023-12-22T07:24:10;97155.95;;;3.25;69.59
84758;BME280;74981;52.476;16.656;2023-12-22T07:26:37;97160.52;;;3.27;70.06
84758;BME280;74981;52.476;16.656;2023-12-22T07:29:04;97162.43;;;3.30;69.61
84758;BME280;74981;52.476;16.656;2023-12-22T07:31:30;97167.66;;;3.34;68.97
84758;BME280;74981;52.476;16.656;2023-12-22T07:33:57;97164.48;;;3.37;68.51
84758;BME280;74981;52.476;16.656;2023-12-22T07:36:24;97179.27;;;3.41;68.51
84758;BME280;74981;52.476;16.656;2023-12-22T07:38:51;97173.98;;;3.42;67.71
84758;BME280;74981;52.476;16.656;2023-12-22T07:41:17;97175.59;;;3.42;67.23
84758;BME280;74981;52.476;16.656;2023-12-22T07:43:44;97183.45;;;3.43;66.48
84758;BME280;74981;52.476;16.656;2023-12-22T07:46:17;97183.16;;;3.39;66.26
84758;BME280;74981;52.476;16.656;2023-12-22T07:48:44;97179.60;;;3.37;65.79
84758;BME280;74981;52.476;16.656;2023-12-22T07:51:11;97192.47;;;3.35;65.97
84758;BME280;74981;52.476;16.656;2023-12-22T07:53:38;97201.22;;;3.44;65.92
84758;BME280;74981;52.476;16.656;2023-12-22T07:56:06;97199.80;;;3.54;65.97
84758;BME280;74981;52.476;16.656;2023-12-22T07:58:33;97194.88;;;3.53;65.14
84758;BME280;74981;52.476;16.656;2023-12-22T08:01:00;97189.60;;;3.58;64.34
84758;BME280;74981;52.476;16.656;2023-12-22T08:03:26;97193.46;;;3.68;64.22
84758;BME280;74981;52.476;16.656;2023-12-22T08:05:53;97201.11;;;3.78;64.45
84758;BME280;74981;52.476;16.656;2023-12-22T08:08:20;97199.87;;;3.91;64.57
84758;BME280;74981;52.476;16.656;2023-12-22T08:10:47;97205.75;;;3.92;64.25
84758;BME280;74981;52.476;16.656;2023-12-22T08:13:13;97210.59;;;3.83;65.02
84758;BME280;74981;52.476;16.656;2023-12-22T08:15:40;97211.25;;;3.73;65.54
84758;BME280;74981;52.476;16.656;2023-12-22T08:18:07;97212.30;;;3.57;68.14
84758;BME280;74981;52.476;16.656;2023-12-22T08:20:34;97197.23;;;3.37;69.90
84758;BME280;74981;52.476;16.656;2023-12-22T08:23:00;97182.60;;;3.22;70.14
84758;BME280;74981;52.476;16.656;2023-12-22T08:25:27;97170.52;;;3.13;70.28
84758;BME280;74981;52.476;16.656;2023-12-22T08:27:54;97184.75;;;3.06;70.90
84758;BME280;74981;52.476;16.656;2023-12-22T08:30:21;97192.44;;;3.02;70.67
84758;BME280;74981;52.476;16.656;2023-12-22T08:32:48;97211.92;;;3.01;70.78
84758;BME280;74981;52.476;16.656;2023-12-22T08:35:14;97218.29;;;3.03;70.29
84758;BME280;74981;52.476;16.656;2023-12-22T08:37:41;97218.84;;;3.09;69.54
84758;BME280;74981;52.476;16.656;2023-12-22T08:40:09;97209.77;;;3.19;69.10
84758;BME280;74981;52.476;16.656;2023-12-22T08:42:36;97201.72;;;3.29;69.25
84758;BME280;74981;52.476;16.656;2023-12-22T08:45:03;97204.35;;;3.43;68.41
84758;BME280;74981;52.476;16.656;2023-12-22T08:47:30;97200.41;;;3.64;68.00
84758;BME280;74981;52.476;16.656;2023-12-22T08:49:57;97201.63;;;3.84;67.98
84758;BME280;74981;52.476;16.656;2023-12-22T08:52:24;97199.79;;;4.05;67.41
84758;BME280;74981;52.476;16.656;2023-12-22T08:54:50;97198.16;;;4.30;67.19
84758;BME280;74981;52.476;16.656;2023-12-22T08:57:17;97199.42;;;4.44;66.86
84758;BME280;74981;52.476;16.656;2023-12-22T08:59:44;97208.44;;;4.41;66.71
84758;BME280;74981;52.476;16.656;2023-12-22T09:02:11;97201.34;;;4.32;67.30
84758;BME280;74981;52.476;16.656;2023-12-22T09:04:37;97192.55;;;4.21;66.65
84758;BME280;74981;52.476;16.656;2023-12-22T09:07:04;97203.80;;;4.09;66.95
84758;BME280;74981;52.476;16.656;2023-12-22T09:09:31;97199.98;;;3.97;67.46
84758;BME280;74981;52.476;16.656;2023-12-22T09:11:58;97209.05;;;3.88;67.16
84758;BME280;74981;52.476;16.656;2023-12-22T09:14:25;97207.83;;;3.80;67.47
84758;BME280;74981;52.476;16.656;2023-12-22T09:16:52;97216.90;;;3.73;67.51
84758;BME280;74981;52.476;16.656;2023-12-22T09:19:18;97209.38;;;3.69;67.81
84758;BME280;74981;52.476;16.656;2023-12-22T09:21:46;97211.60;;;3.68;67.43
84758;BME280;74981;52.476;16.656;2023-12-22T09:24:12;97218.86;;;3.71;67.67
84758;BME280;74981;52.476;16.656;2023-12-22T09:26:39;97201.32;;;3.75;67.47
84758;BME280;74981;52.476;16.656;2023-12-22T09:29:06;97204.20;;;3.79;67.16
84758;BME280;74981;52.476;16.656;2023-12-22T09:31:33;97209.59;;;3.81;66.83
84758;BME280;74981;52.476;16.656;2023-12-22T09:33:59;97211.57;;;3.81;66.56
84758;BME280;74981;52.476;16.656;2023-12-22T09:36:26;97211.08;;;3.81;66.55
84758;BME280;74981;52.476;16.656;2023-12-22T09:38:53;97211.73;;;3.86;66.89
84758;BME280;74981;52.476;16.656;2023-12-22T09:41:20;97202.52;;;3.92;66.28
84758;BME280;74981;52.476;16.656;2023-12-22T09:43:49;97207.02;;;3.94;66.12
84758;BME280;74981;52.476;16.656;2023-12-22T09:46:15;97203.33;;;3.96;66.34
84758;BME280;74981;52.476;16.656;2023-12-22T09:48:43;97198.45;;;3.97;66.52
84758;BME280;74981;52.476;16.656;2023-12-22T09:51:12;97202.35;;;3.98;65.92
84758;BME280;74981;52.476;16.656;2023-12-22T09:53:41;97203.33;;;4.04;66.41
84758;BME280;74981;52.476;16.656;2023-12-22T09:56:09;97203.23;;;4.08;65.99
84758;BME280;74981;52.476;16.656;2023-12-22T09:58:36;97209.95;;;4.25;66.11
84758;BME280;74981;52.476;16.656;2023-12-22T10:01:05;97203.17;;;4.39;65.42
84758;BME280;74981;52.476;16.656;2023-12-22T10:03:33;97196.75;;;4.50;64.96
84758;BME280;74981;52.476;16.656;2023-12-22T10:06:00;97195.15;;;4.53;64.51
84758;BME280;74981;52.476;16.656;2023-12-22T10:08:27;97197.73;;;4.51;64.43
84758;BME280;74981;52.476;16.656;2023-12-22T10:10:54;97203.16;;;4.47;64.53
84758;BME280;74981;52.476;16.656;2023-12-22T10:13:21;97199.67;;;4.42;64.75
84758;BME280;74981;52.476;16.656;2023-12-22T10:15:49;97192.03;;;4.33;64.52
84758;BME280;74981;52.476;16.656;2023-12-22T10:18:16;97195.05;;;4.28;64.64
84758;BME280;74981;52.476;16.656;2023-12-22T10:20:45;97181.60;;;4.23;64.29
84758;BME280;74981;52.476;16.656;2023-12-22T10:23:12;97189.05;;;4.19;64.32
84758;BME280;74981;52.476;16.656;2023-12-22T10:25:41;97187.44;;;4.16;64.14
84758;BME280;74981;52.476;16.656;2023-12-22T10:28:11;97192.41;;;4.17;64.17
84758;BME280;74981;52.476;16.656;2023-12-22T10:30:38;97200.00;;;4.19;64.55
84758;BME280;74981;52.476;16.656;2023-12-22T10:33:07;97212.22;;;4.24;64.35
84758;BME280;74981;52.476;16.656;2023-12-22T10:35:33;97215.23;;;4.22;64.44
84758;BME280;74981;52.476;16.656;2023-12-22T10:38:00;97223.22;;;4.19;64.91
84758;BME280;74981;52.476;16.656;2023-12-22T10:40:27;97225.40;;;4.15;64.99
84758;BME280;74981;52.476;16.656;2023-12-22T10:42:54;97218.54;;;4.12;65.11
84758;BME280;74981;52.476;16.656;2023-12-22T10:45:21;97211.48;;;4.10;64.55
84758;BME280;74981;52.476;16.656;2023-12-22T10:47:49;97209.15;;;4.10;64.41
84758;BME280;74981;52.476;16.656;2023-12-22T10:50:19;97214.77;;;4.15;64.05
84758;BME280;74981;52.476;16.656;2023-12-22T10:52:50;97222.95;;;4.23;64.87
84758;BME280;74981;52.476;16.656;2023-12-22T10:55:16;97220.20;;;4.28;64.25
84758;BME280;74981;52.476;16.656;2023-12-22T10:57:46;97216.95;;;4.32;63.52
84758;BME280;74981;52.476;16.656;2023-12-22T11:00:16;97231.83;;;4.41;63.00
84758;BME280;74981;52.476;16.656;2023-12-22T11:02:43;97217.97;;;4.48;62.04
84758;BME280;74981;52.476;16.656;2023-12-22T11:05:15;97230.54;;;4.51;62.35
84758;BME280;74981;52.476;16.656;2023-12-22T11:07:47;97226.40;;;4.53;62.57
84758;BME280;74981;52.476;16.656;2023-12-22T11:10:15;97226.91;;;4.56;62.41
84758;BME280;74981;52.476;16.656;2023-12-22T11:12:47;97227.15;;;4.59;61.78
84758;BME280;74981;52.476;16.656;2023-12-22T11:15:14;97234.95;;;4.63;62.18
84758;BME280;74981;52.476;16.656;2023-12-22T11:17:42;97235.56;;;4.70;62.27
84758;BME280;74981;52.476;16.656;2023-12-22T11:20:13;97232.46;;;4.75;62.23
84758;BME280;74981;52.476;16.656;2023-12-22T11:22:41;97227.84;;;4.75;61.45
84758;BME280;74981;52.476;16.656;2023-12-22T11:25:09;97226.29;;;4.78;61.69
84758;BME280;74981;52.476;16.656;2023-12-22T11:27:37;97236.45;;;4.76;61.67
84758;BME280;74981;52.476;16.656;2023-12-22T11:30:06;97227.84;;;4.71;61.49
84758;BME280;74981;52.476;16.656;2023-12-22T11:32:34;97235.48;;;4.62;61.43
84758;BME280;74981;52.476;16.656;2023-12-22T11:35:01;97242.84;;;4.55;61.82
84758;BME280;74981;52.476;16.656;2023-12-22T11:37:31;97242.50;;;4.52;62.65
84758;BME280;74981;52.476;16.656;2023-12-22T11:39:58;97245.86;;;4.50;63.25
84758;BME280;74981;52.476;16.656;2023-12-22T11:42:27;97239.28;;;4.46;63.08
84758;BME280;74981;52.476;16.656;2023-12-22T11:44:55;97259.78;;;4.42;63.12
84758;BME280;74981;52.476;16.656;2023-12-22T11:47:23;97262.90;;;4.37;63.78
84758;BME280;74981;52.476;16.656;2023-12-22T11:49:50;97260.06;;;4.33;64.28
84758;BME280;74981;52.476;16.656;2023-12-22T11:52:18;97248.17;;;4.28;64.56
84758;BME280;74981;52.476;16.656;2023-12-22T11:54:52;97256.64;;;4.23;64.64
84758;BME280;74981;52.476;16.656;2023-12-22T11:57:43;97266.34;;;4.18;64.37
84758;BME280;74981;52.476;16.656;2023-12-22T12:00:40;97263.84;;;4.14;64.69
84758;BME280;74981;52.476;16.656;2023-12-22T12:03:07;97275.44;;;4.13;64.15
84758;BME280;74981;52.476;16.656;2023-12-22T12:05:34;97280.02;;;4.16;64.23
84758;BME280;74981;52.476;16.656;2023-12-22T12:08:07;97273.00;;;4.20;63.82
84758;BME280;74981;52.476;16.656;2023-12-22T12:10:52;97282.95;;;4.23;63.84
84758;BME280;74981;52.476;16.656;2023-12-22T12:13:23;97282.00;;;4.25;63.96
84758;BME280;74981;52.476;16.656;2023-12-22T12:15:50;97272.06;;;4.27;63.07
84758;BME280;74981;52.476;16.656;2023-12-22T12:18:22;97271.91;;;4.25;61.98
84758;BME280;74981;52.476;16.656;2023-12-22T12:20:49;97293.11;;;4.24;62.30
84758;BME280;74981;52.476;16.656;2023-12-22T12:23:16;97291.11;;;4.23;62.30
84758;BME280;74981;52.476;16.656;2023-12-22T12:25:43;97295.45;;;4.20;62.27
84758;BME280;74981;52.476;16.656;2023-12-22T12:28:11;97299.96;;;4.17;61.70
84758;BME280;74981;52.476;16.656;2023-12-22T12:30:39;97295.96;;;4.13;61.03
84758;BME280;74981;52.476;16.656;2023-12-22T12:33:18;97298.14;;;4.10;61.63
84758;BME280;74981;52.476;16.656;2023-12-22T12:35:47;97294.70;;;4.06;61.27
84758;BME280;74981;52.476;16.656;2023-12-22T12:38:17;97297.65;;;4.01;60.74
84758;BME280;74981;52.476;16.656;2023-12-22T12:40:51;97301.76;;;3.99;60.90
84758;BME280;74981;52.476;16.656;2023-12-22T12:43:18;97306.02;;;3.98;60.82
84758;BME280;74981;52.476;16.656;2023-12-22T12:45:46;97306.32;;;3.96;60.26
84758;BME280;74981;52.476;16.656;2023-12-22T12:48:16;97315.76;;;3.96;61.31
84758;BME280;74981;52.476;16.656;2023-12-22T12:50:44;97309.21;;;3.96;60.52
84758;BME280;74981;52.476;16.656;2023-12-22T12:53:11;97300.45;;;3.97;59.65
84758;BME280;74981;52.476;16.656;2023-12-22T12:55:38;97310.46;;;3.99;60.15
84758;BME280;74981;52.476;16.656;2023-12-22T12:58:05;97319.39;;;4.00;59.86
84758;BME280;74981;52.476;16.656;2023-12-22T13:00:33;97321.61;;;4.03;60.18
84758;BME280;74981;52.476;16.656;2023-12-22T13:03:01;97325.33;;;4.03;60.03